sensor_id;sensor_type;location;lat;lon;timestamp;P1;durP1;ratioP1;P2;durP2;ratioP2
37789;SDS011;23628;51.434;6.988;2022-09-19T11:14:41;8.05;;;2.00;;
37789;SDS011;23628;51.434;6.988;2022-09-19T11:25:46;5.68;;;1.33;;
37789;SDS011;23628;51.434;6.988;2022-09-19T11:45:18;2.15;;;1.00;;
37789;SDS011;23628;51.434;6.988;2022-09-19T11:53:11;4.60;;;1.10;;
37789;SDS011;23628;51.434;6.988;2022-09-19T11:55:44;2.92;;;0.93;;
37789;SDS011;23628;51.434;6.988;2022-09-19T12:14:53;2.75;;;0.90;;
37789;SDS011;23628;51.434;6.988;2022-09-19T12:17:32;1.00;;;0.90;;
37789;SDS011;23628;51.434;6.988;2022-09-19T12:20:18;1.02;;;0.57;;
37789;SDS011;23628;51.434;6.988;2022-09-19T12:22:49;2.97;;;0.57;;
37789;SDS011;23628;51.434;6.988;2022-09-19T12:25:18;2.28;;;0.68;;
37789;SDS011;23628;51.434;6.988;2022-09-19T12:30:18;3.20;;;0.98;;
37789;SDS011;23628;51.434;6.988;2022-09-19T12:35:45;2.70;;;1.10;;
37789;SDS011;23628;51.434;6.988;2022-09-19T12:38:37;3.58;;;0.90;;
37789;SDS011;23628;51.434;6.988;2022-09-19T12:41:40;2.50;;;1.05;;
37789;SDS011;23628;51.434;6.988;2022-09-19T12:46:58;3.30;;;1.10;;
37789;SDS011;23628;51.434;6.988;2022-09-19T12:52:36;3.42;;;1.10;;
37789;SDS011;23628;51.434;6.988;2022-09-19T12:55:16;5.78;;;0.90;;
37789;SDS011;23628;51.434;6.988;2022-09-19T12:58:00;2.85;;;1.15;;
37789;SDS011;23628;51.434;6.988;2022-09-19T13:00:37;2.65;;;1.02;;
37789;SDS011;23628;51.434;6.988;2022-09-19T13:03:13;2.58;;;0.95;;
37789;SDS011;23628;51.434;6.988;2022-09-19T13:08:33;5.38;;;1.42;;
37789;SDS011;23628;51.434;6.988;2022-09-19T13:11:15;4.07;;;1.20;;
37789;SDS011;23628;51.434;6.988;2022-09-19T13:14:01;5.88;;;1.50;;
37789;SDS011;23628;51.434;6.988;2022-09-19T13:16:44;5.57;;;1.52;;
37789;SDS011;23628;51.434;6.988;2022-09-19T13:19:34;4.03;;;1.50;;
37789;SDS011;23628;51.434;6.988;2022-09-19T13:22:21;5.22;;;1.90;;
37789;SDS011;23628;51.434;6.988;2022-09-19T13:27:45;3.08;;;1.35;;
37789;SDS011;23628;51.434;6.988;2022-09-19T13:33:22;2.47;;;0.95;;
37789;SDS011;23628;51.434;6.988;2022-09-19T13:35:54;2.63;;;1.20;;
37789;SDS011;23628;51.434;6.988;2022-09-19T13:52:22;2.17;;;0.70;;
37789;SDS011;23628;51.434;6.988;2022-09-19T13:57:24;1.90;;;0.80;;
37789;SDS011;23628;51.434;6.988;2022-09-19T14:05:48;2.30;;;0.93;;
37789;SDS011;23628;51.434;6.988;2022-09-19T14:11:39;4.15;;;0.90;;
37789;SDS011;23628;51.434;6.988;2022-09-19T14:19:42;2.05;;;0.95;;
37789;SDS011;23628;51.434;6.988;2022-09-19T14:24:44;4.03;;;1.23;;
37789;SDS011;23628;51.434;6.988;2022-09-19T14:29:50;4.40;;;1.15;;
37789;SDS011;23628;51.434;6.988;2022-09-19T14:35:05;4.20;;;1.17;;
37789;SDS011;23628;51.434;6.988;2022-09-19T14:37:58;4.45;;;1.20;;
37789;SDS011;23628;51.434;6.988;2022-09-19T14:40:51;5.03;;;1.30;;
37789;SDS011;23628;51.434;6.988;2022-09-19T14:46:19;3.67;;;1.40;;
37789;SDS011;23628;51.434;6.988;2022-09-19T14:54:03;3.17;;;1.35;;
37789;SDS011;23628;51.434;6.988;2022-09-19T14:59:16;3.13;;;1.37;;
37789;SDS011;23628;51.434;6.988;2022-09-19T15:04:22;2.90;;;1.33;;
37789;SDS011;23628;51.434;6.988;2022-09-19T15:06:51;4.20;;;1.55;;
